createdAt,value
2018-01-07T00:00:20.837Z,0
2018-01-07T00:01:07.253Z,0
2018-01-07T00:02:05.485Z,0
2018-01-07T00:03:06.554Z,0
2018-01-07T00:04:05.254Z,0
2018-01-07T00:05:07.089Z,0
2018-01-07T00:06:07.498Z,0
2018-01-07T00:07:05.003Z,0
2018-01-07T00:08:06.668Z,0
2018-01-07T00:09:06.178Z,0
2018-01-07T00:10:06.152Z,0
2018-01-07T00:11:05.985Z,0
2018-01-07T00:12:05.586Z,0
2018-01-07T00:13:05.259Z,0
2018-01-07T00:14:05.442Z,0
2018-01-07T00:15:06.382Z,0
2018-01-07T00:16:05.309Z,0
2018-01-07T00:17:05.449Z,0
2018-01-07T00:18:05.464Z,0
2018-01-07T00:19:05.950Z,0
2018-01-07T00:20:06.138Z,0
2018-01-07T00:21:06.771Z,0
2018-01-07T00:22:07.047Z,0
2018-01-07T00:23:06.492Z,0
2018-01-07T00:24:06.481Z,0
2018-01-07T00:25:06.880Z,0
2018-01-07T00:26:07.374Z,0
2018-01-07T00:27:06.782Z,0
2018-01-07T00:28:06.710Z,0
2018-01-07T00:29:06.455Z,0
2018-01-07T00:30:07.183Z,0
2018-01-07T00:31:07.615Z,0
2018-01-07T00:32:07.347Z,0
2018-01-07T00:33:08.012Z,0
2018-01-07T00:34:08.032Z,0
2018-01-07T00:35:07.872Z,0
2018-01-07T00:36:08.620Z,0
2018-01-07T00:37:08.074Z,0
2018-01-07T00:38:08.510Z,0
2018-01-07T00:39:09.159Z,0
2018-01-07T00:40:09.176Z,0
2018-01-07T00:41:09.091Z,0
2018-01-07T00:42:09.296Z,0
2018-01-07T00:43:09.952Z,0
2018-01-07T00:44:10.139Z,0
2018-01-07T00:45:10.146Z,0
2018-01-07T00:46:10.620Z,0
2018-01-07T00:47:10.365Z,0
2018-01-07T00:48:10.764Z,0
2018-01-07T00:49:10.985Z,0
2018-01-07T00:50:10.658Z,0
2018-01-07T00:51:11.882Z,0
2018-01-07T00:52:11.266Z,0
2018-01-07T00:53:11.481Z,0
2018-01-07T00:54:12.075Z,0
2018-01-07T00:55:11.813Z,0
2018-01-07T00:56:11.619Z,0
2018-01-07T00:57:12.060Z,0
2018-01-07T00:58:12.359Z,0
2018-01-07T00:59:12.099Z,0
2018-01-07T01:00:27.656Z,0
2018-01-07T01:01:12.109Z,0
2018-01-07T01:02:11.963Z,0
2018-01-07T01:03:12.969Z,0
2018-01-07T01:04:12.508Z,0
2018-01-07T01:05:13.102Z,0
2018-01-07T01:06:12.820Z,0
2018-01-07T01:07:13.565Z,0
2018-01-07T01:08:13.016Z,0
2018-01-07T01:09:13.381Z,0
2018-01-07T01:10:13.048Z,0
2018-01-07T01:11:14.113Z,0
2018-01-07T01:12:13.875Z,0
2018-01-07T01:13:13.921Z,0
2018-01-07T01:14:13.676Z,0
2018-01-07T01:15:14.149Z,0
2018-01-07T01:16:13.379Z,0
2018-01-07T01:17:14.207Z,0
2018-01-07T01:18:13.912Z,0
2018-01-07T01:19:13.877Z,0
2018-01-07T01:20:14.375Z,0
2018-01-07T01:21:15.129Z,0
2018-01-07T01:22:14.282Z,0
2018-01-07T01:23:15.443Z,0
2018-01-07T01:24:14.721Z,0
2018-01-07T01:25:15.717Z,0
2018-01-07T01:26:15.138Z,0
2018-01-07T01:27:15.330Z,0
2018-01-07T01:28:15.523Z,0
2018-01-07T01:29:15.719Z,0
2018-01-07T01:30:16.428Z,0
2018-01-07T01:31:16.360Z,0
2018-01-07T01:32:16.027Z,0
2018-01-07T01:33:16.023Z,0
2018-01-07T01:34:16.567Z,0
2018-01-07T01:35:16.513Z,0
2018-01-07T01:36:16.544Z,0
2018-01-07T01:37:17.126Z,0
2018-01-07T01:38:17.229Z,0
2018-01-07T01:39:17.478Z,0
2018-01-07T01:40:17.758Z,0
2018-01-07T01:41:18.009Z,0
2018-01-07T01:42:18.012Z,0
2018-01-07T01:43:17.710Z,0
2018-01-07T01:44:18.797Z,0
2018-01-07T01:45:19.662Z,0
2018-01-07T01:46:18.434Z,0
2018-01-07T01:47:18.102Z,0
2018-01-07T01:48:18.607Z,0
2018-01-07T01:49:19.221Z,0
2018-01-07T01:50:19.074Z,0
2018-01-07T01:51:19.126Z,0
2018-01-07T01:52:19.505Z,0
2018-01-07T01:53:18.999Z,0
2018-01-07T01:54:19.427Z,0
2018-01-07T01:55:18.946Z,0
2018-01-07T01:56:18.776Z,0
2018-01-07T01:57:19.456Z,0
2018-01-07T01:58:19.414Z,0
2018-01-07T01:59:18.857Z,0
2018-01-07T02:00:33.600Z,0
2018-01-07T02:01:34.057Z,0
2018-01-07T02:02:48.875Z,0
2018-01-07T02:03:34.544Z,0
2018-01-07T02:04:34.222Z,0
2018-01-07T02:05:34.657Z,0
2018-01-07T02:06:35.061Z,0
2018-01-07T02:07:35.497Z,0
2018-01-07T02:08:34.840Z,0
2018-01-07T02:09:35.921Z,0
2018-01-07T02:10:35.676Z,0
2018-01-07T02:11:35.905Z,0
2018-01-07T02:12:35.379Z,0
2018-01-07T02:13:35.716Z,0
2018-01-07T02:14:36.992Z,0
2018-01-07T02:15:36.405Z,0
2018-01-07T02:16:36.354Z,0
2018-01-07T02:17:37.030Z,0
2018-01-07T02:18:36.884Z,0
2018-01-07T02:19:37.728Z,0
2018-01-07T02:20:37.754Z,0
2018-01-07T02:21:36.902Z,0
2018-01-07T02:22:36.843Z,0
2018-01-07T02:23:36.827Z,0
2018-01-07T02:24:37.087Z,0
2018-01-07T02:25:36.969Z,0
2018-01-07T02:26:37.459Z,0
2018-01-07T02:27:37.303Z,0
2018-01-07T02:28:37.362Z,0
2018-01-07T02:29:37.525Z,0
2018-01-07T02:30:37.908Z,0
2018-01-07T02:31:37.324Z,0
2018-01-07T02:32:38.672Z,0
2018-01-07T02:33:38.005Z,0
2018-01-07T02:34:37.874Z,0
2018-01-07T02:35:38.403Z,0
2018-01-07T02:36:38.853Z,0
2018-01-07T02:37:38.327Z,0
2018-01-07T02:38:38.766Z,0
2018-01-07T02:39:40.275Z,0
2018-01-07T02:40:39.286Z,0
2018-01-07T02:41:40.064Z,0
2018-01-07T02:42:40.125Z,0
2018-01-07T02:43:40.144Z,0
2018-01-07T02:44:40.317Z,0
2018-01-07T02:45:40.817Z,0
2018-01-07T02:46:40.925Z,0
2018-01-07T02:47:40.004Z,0
2018-01-07T02:48:40.729Z,0
2018-01-07T02:49:40.146Z,0
2018-01-07T02:50:39.783Z,0
2018-01-07T02:51:40.317Z,0
2018-01-07T02:52:40.739Z,0
2018-01-07T02:53:40.509Z,0
2018-01-07T02:54:40.866Z,0
2018-01-07T02:55:40.639Z,0
2018-01-07T02:56:40.800Z,0
2018-01-07T02:57:40.633Z,0
2018-01-07T02:58:40.927Z,0
2018-01-07T02:59:40.842Z,0
2018-01-07T03:01:55.673Z,0
2018-01-07T03:02:41.419Z,0
2018-01-07T03:03:41.562Z,0
2018-01-07T03:04:41.889Z,0
2018-01-07T03:05:42.310Z,0
2018-01-07T03:06:42.183Z,0
2018-01-07T03:07:42.597Z,0
2018-01-07T03:08:41.878Z,0
2018-01-07T03:09:42.450Z,0
2018-01-07T03:10:42.457Z,0
2018-01-07T03:11:42.899Z,0
2018-01-07T03:12:43.071Z,0
2018-01-07T03:13:43.124Z,0
2018-01-07T03:14:43.264Z,0
2018-01-07T03:15:43.034Z,0
2018-01-07T03:16:42.704Z,0
2018-01-07T03:17:43.388Z,0
2018-01-07T03:18:43.942Z,0
2018-01-07T03:19:44.120Z,0
2018-01-07T03:20:43.912Z,0
2018-01-07T03:21:44.176Z,0
2018-01-07T03:22:44.354Z,0
2018-01-07T03:23:44.406Z,0
2018-01-07T03:24:44.370Z,0
2018-01-07T03:25:44.587Z,0
2018-01-07T03:26:45.333Z,0
2018-01-07T03:27:45.122Z,0
2018-01-07T03:28:45.378Z,0
2018-01-07T03:29:45.138Z,0
2018-01-07T03:30:45.881Z,0
2018-01-07T03:31:45.918Z,0
2018-01-07T03:32:45.875Z,0
2018-01-07T03:33:46.955Z,0
2018-01-07T03:34:46.424Z,0
2018-01-07T03:35:45.662Z,0
2018-01-07T03:36:46.915Z,0
2018-01-07T03:37:46.293Z,0
2018-01-07T03:38:46.629Z,0
2018-01-07T03:39:46.752Z,0
2018-01-07T03:40:47.208Z,0
2018-01-07T03:41:47.673Z,0
2018-01-07T03:42:47.782Z,0
2018-01-07T03:43:49.015Z,0
2018-01-07T03:44:49.069Z,0
2018-01-07T03:45:49.821Z,0
2018-01-07T03:46:49.014Z,0
2018-01-07T03:47:49.248Z,0
2018-01-07T03:48:49.620Z,0
2018-01-07T03:49:49.264Z,0
2018-01-07T03:50:49.904Z,0
2018-01-07T03:51:49.754Z,0
2018-01-07T03:52:49.651Z,0
2018-01-07T03:53:50.231Z,0
2018-01-07T03:54:49.824Z,0
2018-01-07T03:55:50.936Z,0
2018-01-07T03:56:50.735Z,0
2018-01-07T03:57:50.371Z,0
2018-01-07T03:58:50.586Z,0
2018-01-07T03:59:50.273Z,0
2018-01-07T04:00:50.762Z,0
2018-01-07T04:01:50.883Z,0
2018-01-07T04:02:50.197Z,0
2018-01-07T04:03:50.380Z,0
2018-01-07T04:04:50.860Z,0
2018-01-07T04:05:50.975Z,0
2018-01-07T04:06:51.165Z,0
2018-01-07T04:07:51.309Z,0
2018-01-07T04:08:51.815Z,0
2018-01-07T04:09:51.598Z,0
2018-01-07T04:10:51.790Z,0
2018-01-07T04:11:52.155Z,0
2018-01-07T04:12:52.110Z,0
2018-01-07T04:13:52.555Z,0
2018-01-07T04:14:53.462Z,0
2018-01-07T04:15:52.932Z,0
2018-01-07T04:16:54.653Z,0
2018-01-07T04:17:54.421Z,0
2018-01-07T04:18:54.414Z,0
2018-01-07T04:19:53.235Z,0
2018-01-07T04:20:55.573Z,0
2018-01-07T04:21:55.264Z,0
2018-01-07T04:22:54.628Z,0
2018-01-07T04:23:54.207Z,0
2018-01-07T04:24:55.153Z,0
2018-01-07T04:25:53.959Z,0
2018-01-07T04:26:53.867Z,0
2018-01-07T04:27:54.194Z,0
2018-01-07T04:28:55.174Z,0
2018-01-07T04:29:55.317Z,0
2018-01-07T04:30:55.798Z,0
2018-01-07T04:31:55.017Z,0
2018-01-07T04:32:54.745Z,0
2018-01-07T04:33:54.831Z,0
2018-01-07T04:34:55.012Z,0
2018-01-07T04:35:55.312Z,0
2018-01-07T04:36:55.766Z,0
2018-01-07T04:37:56.011Z,0
2018-01-07T04:38:56.323Z,0
2018-01-07T04:39:56.376Z,0
2018-01-07T04:40:56.207Z,0
2018-01-07T04:41:56.509Z,0
2018-01-07T04:42:56.756Z,0
2018-01-07T04:43:57.824Z,0
2018-01-07T04:44:57.630Z,0
2018-01-07T04:45:57.349Z,0
2018-01-07T04:46:58.296Z,0
2018-01-07T04:48:00.117Z,0
2018-01-07T04:49:00.158Z,0
2018-01-07T04:49:57.500Z,0
2018-01-07T04:50:57.955Z,0
2018-01-07T04:51:58.192Z,0
2018-01-07T04:52:57.913Z,0
2018-01-07T04:53:58.912Z,0
2018-01-07T04:54:58.409Z,0
2018-01-07T04:55:58.415Z,0
2018-01-07T04:56:59.212Z,0
2018-01-07T04:57:59.468Z,0
2018-01-07T04:58:59.178Z,0
2018-01-07T04:59:58.848Z,0
2018-01-07T05:00:59.417Z,0
2018-01-07T05:01:58.715Z,0
2018-01-07T05:02:58.973Z,0
2018-01-07T05:03:59.245Z,0
2018-01-07T05:04:59.716Z,0
2018-01-07T05:05:58.651Z,0
2018-01-07T05:06:58.688Z,0
2018-01-07T05:07:58.938Z,0
2018-01-07T05:08:59.377Z,0
2018-01-07T05:10:00.060Z,0
2018-01-07T05:11:00.124Z,0
2018-01-07T05:11:59.779Z,0
2018-01-07T05:12:59.923Z,0
2018-01-07T05:14:00.616Z,0
2018-01-07T05:14:59.887Z,0
2018-01-07T05:16:00.384Z,0
2018-01-07T05:17:00.310Z,0
2018-01-07T05:18:01.002Z,0
2018-01-07T05:19:01.455Z,0
2018-01-07T05:20:02.130Z,0
2018-01-07T05:21:01.999Z,0
2018-01-07T05:22:01.762Z,0
2018-01-07T05:23:01.969Z,0
2018-01-07T05:24:01.762Z,0
2018-01-07T05:25:02.944Z,0
2018-01-07T05:26:02.494Z,0
2018-01-07T05:27:01.457Z,0
2018-01-07T05:28:02.032Z,0
2018-01-07T05:29:01.770Z,0
2018-01-07T05:30:02.135Z,0
2018-01-07T05:31:02.455Z,0
2018-01-07T05:32:03.540Z,0
2018-01-07T05:33:03.115Z,0
2018-01-07T05:34:02.961Z,0
2018-01-07T05:35:03.511Z,0
2018-01-07T05:36:03.056Z,0
2018-01-07T05:37:03.549Z,0
2018-01-07T05:38:03.404Z,0
2018-01-07T05:39:05.881Z,0
2018-01-07T05:40:05.817Z,0
2018-01-07T05:41:04.455Z,0
2018-01-07T05:42:05.476Z,0
2018-01-07T05:43:04.194Z,0
2018-01-07T05:44:04.340Z,0
2018-01-07T05:45:05.059Z,0
2018-01-07T05:46:04.908Z,0
2018-01-07T05:47:05.645Z,0
2018-01-07T05:48:05.110Z,0
2018-01-07T05:49:05.585Z,0
2018-01-07T05:50:06.096Z,0
2018-01-07T05:51:05.767Z,0
2018-01-07T05:52:06.396Z,0
2018-01-07T05:53:05.928Z,0
2018-01-07T05:54:06.682Z,0
2018-01-07T05:55:06.175Z,0
2018-01-07T05:56:06.428Z,0
2018-01-07T05:57:06.705Z,0
2018-01-07T05:58:06.682Z,0
2018-01-07T05:59:06.699Z,0
2018-01-07T06:00:21.266Z,0
2018-01-07T06:01:06.505Z,0
2018-01-07T06:02:06.920Z,0
2018-01-07T06:03:07.083Z,0
2018-01-07T06:04:08.690Z,0
2018-01-07T06:05:09.502Z,0
2018-01-07T06:06:07.805Z,0
2018-01-07T06:07:08.094Z,0
2018-01-07T06:08:07.538Z,0
2018-01-07T06:09:08.668Z,0
2018-01-07T06:10:08.660Z,0
2018-01-07T06:11:08.791Z,0
2018-01-07T06:12:08.912Z,0
2018-01-07T06:13:09.241Z,0
2018-01-07T06:14:09.382Z,0
2018-01-07T06:15:09.924Z,0
2018-01-07T06:16:09.371Z,0
2018-01-07T06:17:10.139Z,0
2018-01-07T06:18:09.491Z,0
2018-01-07T06:19:09.958Z,0
2018-01-07T06:20:09.612Z,0
2018-01-07T06:21:10.077Z,0
2018-01-07T06:22:10.058Z,0
2018-01-07T06:23:10.538Z,0
2018-01-07T06:24:10.952Z,0
2018-01-07T06:25:10.819Z,0
2018-01-07T06:26:11.183Z,0
2018-01-07T06:27:11.483Z,0
2018-01-07T06:28:11.398Z,0
2018-01-07T06:29:11.529Z,0
2018-01-07T06:30:12.926Z,0
2018-01-07T06:31:12.664Z,0
2018-01-07T06:32:12.446Z,0
2018-01-07T06:33:12.451Z,0
2018-01-07T06:34:13.016Z,0
2018-01-07T06:35:12.910Z,0
2018-01-07T06:36:13.056Z,0
2018-01-07T06:37:13.114Z,0
2018-01-07T06:38:13.313Z,0
2018-01-07T06:39:13.591Z,0
2018-01-07T06:40:14.324Z,0
2018-01-07T06:41:13.960Z,0
2018-01-07T06:42:13.879Z,0
2018-01-07T06:43:14.278Z,0
2018-01-07T06:44:14.117Z,0
2018-01-07T06:45:14.809Z,0
2018-01-07T06:46:14.710Z,0
2018-01-07T06:47:15.005Z,0
2018-01-07T06:48:15.516Z,0
2018-01-07T06:49:15.619Z,0
2018-01-07T06:50:15.083Z,0
2018-01-07T06:51:15.348Z,0
2018-01-07T06:52:15.471Z,0
2018-01-07T06:53:15.337Z,0
2018-01-07T06:54:15.870Z,0
2018-01-07T06:55:15.603Z,0
2018-01-07T06:56:15.759Z,0
2018-01-07T06:57:15.357Z,0
2018-01-07T06:58:16.407Z,0
2018-01-07T06:59:16.765Z,0
2018-01-07T07:00:31.327Z,0
2018-01-07T07:01:31.912Z,0
2018-01-07T07:02:32.660Z,0
2018-01-07T07:03:32.534Z,0
2018-01-07T07:04:32.997Z,0
2018-01-07T07:05:32.643Z,0
2018-01-07T07:06:33.131Z,0
2018-01-07T07:07:33.311Z,0
2018-01-07T07:08:33.474Z,0
2018-01-07T07:09:34.142Z,0
2018-01-07T07:10:33.278Z,0
2018-01-07T07:11:33.764Z,0
2018-01-07T07:12:33.991Z,0
2018-01-07T07:13:34.282Z,0
2018-01-07T07:14:34.802Z,0
2018-01-07T07:15:33.467Z,0
2018-01-07T07:16:34.306Z,5
2018-01-07T07:17:35.481Z,5
2018-01-07T07:18:33.832Z,5
2018-01-07T07:19:33.699Z,5
2018-01-07T07:20:33.479Z,5
2018-01-07T07:21:34.021Z,5
2018-01-07T07:22:34.574Z,5
2018-01-07T07:23:34.590Z,5
2018-01-07T07:24:34.562Z,5
2018-01-07T07:25:34.376Z,10
2018-01-07T07:26:33.770Z,10
2018-01-07T07:27:35.060Z,10
2018-01-07T07:28:34.852Z,10
2018-01-07T07:29:34.595Z,10
2018-01-07T07:30:34.469Z,10
2018-01-07T07:31:34.979Z,10
2018-01-07T07:32:34.937Z,10
2018-01-07T07:33:35.382Z,10
2018-01-07T07:34:34.667Z,10
2018-01-07T07:35:36.048Z,15
2018-01-07T07:36:35.871Z,15
2018-01-07T07:37:36.592Z,15
2018-01-07T07:38:35.784Z,15
2018-01-07T07:39:36.481Z,15
2018-01-07T07:40:35.673Z,15
2018-01-07T07:41:37.108Z,15
2018-01-07T07:42:36.299Z,20
2018-01-07T07:43:36.864Z,20
2018-01-07T07:44:36.462Z,20
2018-01-07T07:45:37.609Z,20
2018-01-07T07:46:37.038Z,20
2018-01-07T07:47:37.592Z,20
2018-01-07T07:48:36.573Z,20
2018-01-07T07:49:37.123Z,20
2018-01-07T07:50:37.201Z,25
2018-01-07T07:51:36.673Z,25
2018-01-07T07:52:37.382Z,30
2018-01-07T07:53:36.932Z,35
2018-01-07T07:54:37.477Z,40
2018-01-07T07:55:37.606Z,35
2018-01-07T07:56:37.043Z,35
2018-01-07T07:57:37.376Z,30
2018-01-07T07:58:37.568Z,25
2018-01-07T07:59:37.506Z,25
2018-01-07T08:00:37.466Z,25
2018-01-07T08:01:37.428Z,25
2018-01-07T08:02:37.873Z,25
2018-01-07T08:03:38.613Z,20
2018-01-07T08:04:38.196Z,25
2018-01-07T08:05:37.670Z,25
2018-01-07T08:06:38.022Z,25
2018-01-07T08:07:37.964Z,30
2018-01-07T08:08:38.896Z,30
2018-01-07T08:09:38.770Z,35
2018-01-07T08:10:38.636Z,35
2018-01-07T08:11:38.674Z,40
2018-01-07T08:12:38.036Z,40
2018-01-07T08:13:38.860Z,40
2018-01-07T08:14:38.779Z,40
2018-01-07T08:15:39.023Z,40
2018-01-07T08:16:39.512Z,40
2018-01-07T08:17:39.612Z,45
2018-01-07T08:18:39.834Z,45
2018-01-07T08:19:39.376Z,45
2018-01-07T08:20:39.375Z,45
2018-01-07T08:21:39.224Z,45
2018-01-07T08:22:39.724Z,45
2018-01-07T08:23:40.039Z,45
2018-01-07T08:24:39.980Z,45
2018-01-07T08:25:40.278Z,50
2018-01-07T08:26:39.482Z,50
2018-01-07T08:27:39.761Z,55
2018-01-07T08:28:40.286Z,60
2018-01-07T08:29:40.812Z,65
2018-01-07T08:30:40.380Z,65
2018-01-07T08:31:40.315Z,65
2018-01-07T08:32:40.489Z,65
2018-01-07T08:33:40.912Z,65
2018-01-07T08:34:41.693Z,65
2018-01-07T08:35:56.245Z,65
2018-01-07T08:36:41.703Z,65
2018-01-07T08:37:41.621Z,65
2018-01-07T08:38:42.063Z,65
2018-01-07T08:39:42.546Z,65
2018-01-07T08:40:42.805Z,60
2018-01-07T08:41:42.918Z,60
2018-01-07T08:42:42.553Z,60
2018-01-07T08:43:43.129Z,60
2018-01-07T08:44:43.051Z,60
2018-01-07T08:45:43.469Z,60
2018-01-07T08:46:43.624Z,60
2018-01-07T08:47:43.390Z,60
2018-01-07T08:48:43.842Z,60
2018-01-07T08:49:43.884Z,65
2018-01-07T08:50:44.829Z,70
2018-01-07T08:51:44.388Z,70
2018-01-07T08:52:46.955Z,70
2018-01-07T08:53:44.635Z,75
2018-01-07T08:54:46.858Z,75
2018-01-07T08:55:45.820Z,80
2018-01-07T08:56:50.870Z,80
2018-01-07T08:57:51.292Z,80
2018-01-07T08:58:50.602Z,80
2018-01-07T08:59:51.247Z,80
2018-01-07T09:00:52.087Z,80
2018-01-07T09:01:51.281Z,80
2018-01-07T09:02:51.302Z,80
2018-01-07T09:03:51.574Z,80
2018-01-07T09:04:51.292Z,80
2018-01-07T09:05:51.034Z,75
2018-01-07T09:06:51.687Z,75
2018-01-07T09:07:51.748Z,75
2018-01-07T09:08:51.873Z,70
2018-01-07T09:09:52.559Z,75
2018-01-07T09:10:52.686Z,75
2018-01-07T09:11:53.130Z,75
2018-01-07T09:12:53.048Z,80
2018-01-07T09:13:53.222Z,80
2018-01-07T09:14:53.950Z,80
2018-01-07T09:15:54.060Z,80
2018-01-07T09:16:54.842Z,85
2018-01-07T09:17:54.222Z,85
2018-01-07T09:18:54.614Z,90
2018-01-07T09:19:55.093Z,90
2018-01-07T09:20:55.091Z,85
2018-01-07T09:21:55.090Z,85
2018-01-07T09:22:55.750Z,90
2018-01-07T09:23:55.850Z,95
2018-01-07T09:24:55.956Z,100
2018-01-07T09:25:55.715Z,105
2018-01-07T09:26:55.948Z,105
2018-01-07T09:27:56.001Z,105
2018-01-07T09:28:55.720Z,110
2018-01-07T09:29:56.131Z,115
2018-01-07T09:30:56.001Z,115
2018-01-07T09:31:55.902Z,120
2018-01-07T09:32:56.472Z,120
2018-01-07T09:33:57.308Z,115
2018-01-07T09:34:57.050Z,120
2018-01-07T09:35:56.363Z,120
2018-01-07T09:36:57.225Z,120
2018-01-07T09:37:57.582Z,120
2018-01-07T09:38:57.814Z,120
2018-01-07T09:39:57.434Z,120
2018-01-07T09:40:57.663Z,120
2018-01-07T09:41:58.361Z,120
2018-01-07T09:42:58.278Z,120
2018-01-07T09:43:58.544Z,115
2018-01-07T09:44:58.411Z,115
2018-01-07T09:45:58.204Z,110
2018-01-07T09:46:58.412Z,110
2018-01-07T09:47:58.655Z,105
2018-01-07T09:48:58.168Z,105
2018-01-07T09:49:58.706Z,105
2018-01-07T09:50:58.409Z,110
2018-01-07T09:51:58.568Z,110
2018-01-07T09:52:59.040Z,115
2018-01-07T09:53:59.040Z,115
2018-01-07T09:54:59.938Z,115
2018-01-07T09:55:59.442Z,120
2018-01-07T09:56:59.389Z,120
2018-01-07T09:57:59.438Z,120
2018-01-07T09:58:59.496Z,120
2018-01-07T09:59:59.125Z,120
2018-01-07T10:00:59.429Z,120
2018-01-07T10:01:59.433Z,120
2018-01-07T10:02:59.431Z,120
2018-01-07T10:03:59.899Z,120
2018-01-07T10:04:59.047Z,120
2018-01-07T10:05:59.642Z,125
2018-01-07T10:06:59.853Z,125
2018-01-07T10:08:00.040Z,125
2018-01-07T10:08:59.792Z,125
2018-01-07T10:09:59.694Z,125
2018-01-07T10:11:00.230Z,130
2018-01-07T10:11:59.687Z,125
2018-01-07T10:13:00.116Z,125
2018-01-07T10:13:59.453Z,125
2018-01-07T10:15:00.861Z,120
2018-01-07T10:16:00.627Z,120
2018-01-07T10:17:00.051Z,120
2018-01-07T10:18:00.718Z,120
2018-01-07T10:19:00.397Z,120
2018-01-07T10:20:01.088Z,120
2018-01-07T10:21:00.766Z,120
2018-01-07T10:22:01.324Z,125
2018-01-07T10:23:01.402Z,125
2018-01-07T10:24:01.675Z,125
2018-01-07T10:25:01.656Z,130
2018-01-07T10:26:01.695Z,130
2018-01-07T10:27:02.263Z,130
2018-01-07T10:28:02.569Z,130
2018-01-07T10:29:02.890Z,130
2018-01-07T10:30:02.326Z,130
2018-01-07T10:31:02.845Z,135
2018-01-07T10:32:02.930Z,135
2018-01-07T10:33:03.096Z,135
2018-01-07T10:34:03.808Z,135
2018-01-07T10:35:03.453Z,130
2018-01-07T10:36:03.379Z,135
2018-01-07T10:37:03.894Z,130
2018-01-07T10:38:03.907Z,135
2018-01-07T10:39:04.622Z,135
2018-01-07T10:40:04.491Z,140
2018-01-07T10:41:04.612Z,140
2018-01-07T10:42:04.830Z,135
2018-01-07T10:43:05.528Z,135
2018-01-07T10:44:05.056Z,135
2018-01-07T10:45:05.843Z,140
2018-01-07T10:46:05.561Z,145
2018-01-07T10:47:04.858Z,150
2018-01-07T10:48:04.968Z,150
2018-01-07T10:49:05.156Z,150
2018-01-07T10:50:05.243Z,155
2018-01-07T10:51:05.919Z,160
2018-01-07T10:52:05.574Z,165
2018-01-07T10:53:05.462Z,170
2018-01-07T10:54:05.431Z,175
2018-01-07T10:55:06.174Z,180
2018-01-07T10:56:05.884Z,185
2018-01-07T10:57:06.051Z,190
2018-01-07T10:58:06.363Z,195
2018-01-07T10:59:05.965Z,200
2018-01-07T11:01:07.875Z,205
2018-01-07T11:02:06.912Z,205
2018-01-07T11:03:06.372Z,210
2018-01-07T11:04:06.999Z,210
2018-01-07T11:05:06.947Z,210
2018-01-07T11:06:07.488Z,210
2018-01-07T11:07:07.539Z,215
2018-01-07T11:08:07.271Z,215
2018-01-07T11:09:07.109Z,215
2018-01-07T11:10:07.054Z,215
2018-01-07T11:11:07.128Z,215
2018-01-07T11:12:07.569Z,215
2018-01-07T11:13:07.369Z,210
2018-01-07T11:14:07.347Z,210
2018-01-07T11:15:07.345Z,210
2018-01-07T11:16:07.448Z,210
2018-01-07T11:17:07.887Z,205
2018-01-07T11:18:08.393Z,200
2018-01-07T11:19:08.880Z,195
2018-01-07T11:20:08.206Z,190
2018-01-07T11:21:08.646Z,185
2018-01-07T11:22:09.321Z,175
2018-01-07T11:23:09.664Z,170
2018-01-07T11:24:09.325Z,165
2018-01-07T11:25:10.090Z,160
2018-01-07T11:26:09.441Z,160
2018-01-07T11:27:09.475Z,160
2018-01-07T11:28:09.610Z,160
2018-01-07T11:29:09.240Z,165
2018-01-07T11:30:10.088Z,165
2018-01-07T11:31:09.749Z,165
2018-01-07T11:32:09.478Z,170
2018-01-07T11:33:10.275Z,180
2018-01-07T11:34:09.949Z,180
2018-01-07T11:35:10.328Z,190
2018-01-07T11:36:10.452Z,190
2018-01-07T11:37:10.250Z,190
2018-01-07T11:38:10.785Z,190
2018-01-07T11:39:11.063Z,195
2018-01-07T11:40:11.608Z,205
2018-01-07T11:41:10.977Z,210
2018-01-07T11:42:11.623Z,220
2018-01-07T11:43:11.539Z,225
2018-01-07T11:44:12.204Z,225
2018-01-07T11:45:11.877Z,230
2018-01-07T11:46:12.293Z,235
2018-01-07T11:47:12.440Z,235
2018-01-07T11:48:12.646Z,230
2018-01-07T11:49:12.350Z,225
2018-01-07T11:50:12.681Z,220
2018-01-07T11:51:12.952Z,215
2018-01-07T11:52:12.900Z,210
2018-01-07T11:53:13.430Z,210
2018-01-07T11:54:13.115Z,205
2018-01-07T11:55:13.399Z,205
2018-01-07T11:56:13.300Z,200
2018-01-07T11:57:13.667Z,200
2018-01-07T11:58:13.392Z,195
2018-01-07T11:59:13.875Z,195
2018-01-07T12:00:28.987Z,190
2018-01-07T12:01:48.541Z,185
2018-01-07T12:02:33.914Z,180
2018-01-07T12:03:34.637Z,175
2018-01-07T12:04:49.317Z,170
2018-01-07T12:05:34.478Z,170
2018-01-07T12:06:35.469Z,170
2018-01-07T12:07:35.266Z,170
2018-01-07T12:08:35.292Z,170
2018-01-07T12:09:35.531Z,165
2018-01-07T12:10:35.387Z,170
2018-01-07T12:11:35.795Z,170
2018-01-07T12:12:34.908Z,165
2018-01-07T12:13:35.455Z,165
2018-01-07T12:14:35.619Z,165
2018-01-07T12:15:36.405Z,170
2018-01-07T12:16:36.690Z,170
2018-01-07T12:17:37.648Z,170
2018-01-07T12:18:36.963Z,165
2018-01-07T12:19:36.584Z,165
2018-01-07T12:20:36.024Z,165
2018-01-07T12:21:37.514Z,165
2018-01-07T12:22:36.356Z,165
2018-01-07T12:23:35.788Z,160
2018-01-07T12:24:36.850Z,160
2018-01-07T12:25:36.990Z,160
2018-01-07T12:26:37.365Z,160
2018-01-07T12:27:37.379Z,155
2018-01-07T12:28:37.005Z,155
2018-01-07T12:29:37.532Z,155
2018-01-07T12:30:37.367Z,150
2018-01-07T12:31:37.419Z,150
2018-01-07T12:32:36.985Z,145
2018-01-07T12:33:37.020Z,145
2018-01-07T12:34:36.987Z,145
2018-01-07T12:35:37.574Z,145
2018-01-07T12:36:36.828Z,145
2018-01-07T12:37:37.300Z,145
2018-01-07T12:38:37.493Z,145
2018-01-07T12:39:37.574Z,140
2018-01-07T12:40:37.841Z,140
2018-01-07T12:41:37.714Z,140
2018-01-07T12:42:38.278Z,140
2018-01-07T12:43:37.979Z,140
2018-01-07T12:44:37.988Z,140
2018-01-07T12:45:38.890Z,135
2018-01-07T12:46:38.485Z,135
2018-01-07T12:47:39.917Z,135
2018-01-07T12:48:38.804Z,130
2018-01-07T12:49:39.622Z,130
2018-01-07T12:50:39.659Z,125
2018-01-07T12:51:39.379Z,125
2018-01-07T12:52:38.965Z,120
2018-01-07T12:53:39.683Z,120
2018-01-07T12:54:39.864Z,120
2018-01-07T12:55:40.395Z,115
2018-01-07T12:56:39.615Z,115
2018-01-07T12:57:39.297Z,115
2018-01-07T12:58:39.738Z,115
2018-01-07T12:59:39.918Z,115
2018-01-07T13:00:41.062Z,110
2018-01-07T13:01:40.567Z,110
2018-01-07T13:02:40.686Z,110
2018-01-07T13:03:41.411Z,110
2018-01-07T13:04:41.189Z,110
2018-01-07T13:05:41.837Z,110
2018-01-07T13:06:41.079Z,110
2018-01-07T13:07:41.957Z,105
2018-01-07T13:08:41.411Z,105
2018-01-07T13:09:41.960Z,105
2018-01-07T13:10:56.460Z,105
2018-01-07T13:11:41.329Z,100
2018-01-07T13:12:42.423Z,100
2018-01-07T13:13:41.896Z,100
2018-01-07T13:14:42.775Z,100
2018-01-07T13:15:42.783Z,100
2018-01-07T13:16:43.350Z,100
2018-01-07T13:17:42.689Z,100
2018-01-07T13:18:42.881Z,100
2018-01-07T13:19:42.403Z,100
2018-01-07T13:20:43.176Z,100
2018-01-07T13:21:43.146Z,100
2018-01-07T13:22:42.805Z,100
2018-01-07T13:23:43.626Z,100
2018-01-07T13:24:43.488Z,100
2018-01-07T13:25:43.504Z,100
2018-01-07T13:26:43.628Z,100
2018-01-07T13:27:43.758Z,100
2018-01-07T13:28:43.985Z,95
2018-01-07T13:29:43.961Z,95
2018-01-07T13:30:43.915Z,95
2018-01-07T13:31:44.696Z,90
2018-01-07T13:32:44.414Z,90
2018-01-07T13:33:44.544Z,90
2018-01-07T13:34:44.638Z,85
2018-01-07T13:35:44.679Z,85
2018-01-07T13:36:45.257Z,80
2018-01-07T13:37:43.856Z,80
2018-01-07T13:38:44.688Z,85
2018-01-07T13:39:44.661Z,85
2018-01-07T13:40:44.952Z,80
2018-01-07T13:41:45.454Z,80
2018-01-07T13:42:45.424Z,75
2018-01-07T13:43:45.617Z,75
2018-01-07T13:44:45.856Z,70
2018-01-07T13:45:45.579Z,70
2018-01-07T13:46:45.428Z,70
2018-01-07T13:47:45.832Z,70
2018-01-07T13:48:45.874Z,70
2018-01-07T13:49:46.394Z,75
2018-01-07T13:50:46.486Z,75
2018-01-07T13:51:45.575Z,75
2018-01-07T13:52:46.329Z,75
2018-01-07T13:53:47.336Z,75
2018-01-07T13:54:46.910Z,75
2018-01-07T13:55:47.080Z,75
2018-01-07T13:56:48.224Z,75
2018-01-07T13:57:48.023Z,70
2018-01-07T13:58:47.706Z,70
2018-01-07T13:59:47.455Z,70
2018-01-07T14:00:47.987Z,75
2018-01-07T14:01:47.500Z,70
2018-01-07T14:02:48.104Z,70
2018-01-07T14:03:47.974Z,70
2018-01-07T14:04:50.266Z,65
2018-01-07T14:05:48.965Z,65
2018-01-07T14:06:49.219Z,65
2018-01-07T14:07:53.956Z,65
2018-01-07T14:08:54.735Z,60
2018-01-07T14:09:55.475Z,60
2018-01-07T14:10:55.736Z,60
2018-01-07T14:11:55.687Z,60
2018-01-07T14:12:54.730Z,55
2018-01-07T14:13:55.342Z,55
2018-01-07T14:14:54.898Z,55
2018-01-07T14:15:54.969Z,55
2018-01-07T14:16:54.867Z,55
2018-01-07T14:17:54.884Z,50
2018-01-07T14:18:55.048Z,50
2018-01-07T14:19:56.043Z,50
2018-01-07T14:20:54.926Z,45
2018-01-07T14:21:54.691Z,45
2018-01-07T14:22:54.692Z,45
2018-01-07T14:23:55.647Z,40
2018-01-07T14:24:54.860Z,40
2018-01-07T14:25:54.950Z,40
2018-01-07T14:26:55.376Z,40